EZY23RV EGAA-EGHI
Flight info
| Callsign | EZY23RV |
|---|---|
| Flight time | 0h 58m |
| Altitude | 33000 |
| Route | LISBO DCT RINGA DCT BABGU DCT ETIGA DCT INKOB Q39 NOMSU UQ4 WAL L151 PEPUL Y322 BUGUP |
| Aircraft | A320/M-SDE3FGHIRWY/LB1 |
Departure
| Time | 2026-05-04 19:57 |
|---|---|
| Airport | Belfast International Airport (EGAA) |
Arrival
| Time | 2026-05-04 20:56 |
|---|---|
| Airport | Southampton Airport (EGHI) |
| Time | Latitude | Longitude | Altitude | Speed | Heading |
|---|---|---|---|---|---|
| 2026-05-04 19:31 | 54.66146 | -6.21381 | 272 ft | 0 kts | 245° |
| 2026-05-04 19:49 | 54.66149 | -6.21370 | 272 ft | 4 kts | 243° |
| 2026-05-04 19:49 | 54.66163 | -6.21332 | 276 ft | 4 kts | 219° |
| 2026-05-04 19:49 | 54.66185 | -6.21313 | 276 ft | 4 kts | 173° |
| 2026-05-04 19:50 | 54.66197 | -6.21319 | 277 ft | 1 kts | 155° |
| 2026-05-04 19:50 | 54.66198 | -6.21320 | 273 ft | 0 kts | 155° |
| 2026-05-04 19:52 | 54.66196 | -6.21318 | 276 ft | 3 kts | 155° |
| 2026-05-04 19:52 | 54.66158 | -6.21288 | 274 ft | 9 kts | 155° |
| 2026-05-04 19:52 | 54.66067 | -6.21214 | 272 ft | 11 kts | 158° |
| 2026-05-04 19:53 | 54.66014 | -6.21274 | 272 ft | 11 kts | 245° |
| 2026-05-04 19:53 | 54.65970 | -6.21441 | 272 ft | 17 kts | 245° |
| 2026-05-04 19:53 | 54.65918 | -6.21632 | 272 ft | 18 kts | 244° |
| 2026-05-04 19:53 | 54.65862 | -6.21839 | 274 ft | 20 kts | 245° |
| 2026-05-04 19:54 | 54.65803 | -6.22060 | 274 ft | 21 kts | 245° |
| 2026-05-04 19:54 | 54.65767 | -6.22287 | 272 ft | 20 kts | 263° |
| 2026-05-04 19:54 | 54.65757 | -6.22443 | 272 ft | 12 kts | 263° |
| 2026-05-04 19:54 | 54.65747 | -6.22598 | 272 ft | 13 kts | 266° |
| 2026-05-04 19:55 | 54.65726 | -6.22779 | 272 ft | 16 kts | 232° |
| 2026-05-04 19:55 | 54.65634 | -6.22777 | 276 ft | 14 kts | 161° |
| 2026-05-04 19:55 | 54.65549 | -6.22727 | 272 ft | 13 kts | 161° |
| 2026-05-04 19:55 | 54.65480 | -6.22677 | 273 ft | 8 kts | 134° |
| 2026-05-04 19:56 | 54.65477 | -6.22591 | 272 ft | 6 kts | 70° |
| 2026-05-04 19:56 | 54.65481 | -6.22576 | 272 ft | 1 kts | 67° |
| 2026-05-04 19:56 | 54.65481 | -6.22575 | 272 ft | 0 kts | 67° |
| 2026-05-04 19:56 | 54.65486 | -6.22556 | 272 ft | 10 kts | 67° |
| 2026-05-04 19:57 | 54.65621 | -6.22062 | 273 ft | 84 kts | 65° |
| 2026-05-04 19:57 | 54.65958 | -6.20812 | 279 ft | 143 kts | 63° |
| 2026-05-04 19:57 | 54.66362 | -6.19154 | 814 ft | 151 kts | 66° |
| 2026-05-04 19:57 | 54.66527 | -6.17353 | 1456 ft | 164 kts | 99° |
| 2026-05-04 19:58 | 54.65894 | -6.15589 | 1768 ft | 189 kts | 143° |
| 2026-05-04 19:58 | 54.64614 | -6.14761 | 2076 ft | 209 kts | 176° |
| 2026-05-04 19:58 | 54.63090 | -6.14841 | 2406 ft | 231 kts | 188° |
| 2026-05-04 19:58 | 54.61407 | -6.15191 | 2848 ft | 256 kts | 189° |
| 2026-05-04 19:59 | 54.59610 | -6.15586 | 3635 ft | 264 kts | 189° |
| 2026-05-04 19:59 | 54.57773 | -6.16001 | 4523 ft | 270 kts | 190° |
| 2026-05-04 19:59 | 54.55909 | -6.16450 | 5341 ft | 272 kts | 190° |
| 2026-05-04 19:59 | 54.54024 | -6.16872 | 6260 ft | 275 kts | 189° |
| 2026-05-04 20:00 | 54.52113 | -6.17269 | 7117 ft | 279 kts | 189° |
| 2026-05-04 20:00 | 54.50176 | -6.17639 | 7950 ft | 282 kts | 188° |
| 2026-05-04 20:00 | 54.48206 | -6.18013 | 8742 ft | 288 kts | 188° |
| 2026-05-04 20:00 | 54.46201 | -6.18339 | 9024 ft | 290 kts | 182° |
| 2026-05-04 20:01 | 54.44230 | -6.17623 | 9102 ft | 294 kts | 155° |
| 2026-05-04 20:01 | 54.42633 | -6.15527 | 9103 ft | 296 kts | 129° |
| 2026-05-04 20:01 | 54.41641 | -6.12400 | 9105 ft | 297 kts | 111° |
| 2026-05-04 20:01 | 54.40978 | -6.09070 | 9456 ft | 300 kts | 101° |
| 2026-05-04 20:02 | 54.40788 | -6.05506 | 10309 ft | 303 kts | 91° |
| 2026-05-04 20:02 | 54.40710 | -6.01753 | 10605 ft | 326 kts | 91° |
| 2026-05-04 20:02 | 54.40637 | -5.97733 | 10903 ft | 346 kts | 91° |
| 2026-05-04 20:02 | 54.40563 | -5.93541 | 11526 ft | 354 kts | 91° |
| 2026-05-04 20:03 | 54.40484 | -5.89297 | 12253 ft | 358 kts | 91° |
| 2026-05-04 20:03 | 54.40405 | -5.85011 | 12986 ft | 362 kts | 91° |
| 2026-05-04 20:03 | 54.40324 | -5.80669 | 13707 ft | 366 kts | 91° |
| 2026-05-04 20:03 | 54.40240 | -5.76291 | 14362 ft | 369 kts | 92° |
| 2026-05-04 20:04 | 54.40150 | -5.71864 | 15006 ft | 372 kts | 92° |
| 2026-05-04 20:04 | 54.40058 | -5.67405 | 15652 ft | 375 kts | 91° |
| 2026-05-04 20:04 | 54.39945 | -5.62912 | 16287 ft | 379 kts | 95° |
| 2026-05-04 20:04 | 54.39471 | -5.58456 | 16869 ft | 383 kts | 105° |
| 2026-05-04 20:05 | 54.38521 | -5.54189 | 17066 ft | 383 kts | 117° |
| 2026-05-04 20:05 | 54.37122 | -5.50303 | 17089 ft | 383 kts | 126° |
| 2026-05-04 20:05 | 54.35589 | -5.46577 | 17098 ft | 381 kts | 125° |
| 2026-05-04 20:05 | 54.34070 | -5.42869 | 17098 ft | 381 kts | 125° |
| 2026-05-04 20:06 | 54.32553 | -5.39155 | 17101 ft | 380 kts | 125° |
| 2026-05-04 20:06 | 54.31036 | -5.35436 | 17100 ft | 380 kts | 125° |
| 2026-05-04 20:06 | 54.29523 | -5.31727 | 17095 ft | 380 kts | 125° |
| 2026-05-04 20:06 | 54.28007 | -5.28012 | 17098 ft | 381 kts | 125° |
| 2026-05-04 20:07 | 54.26427 | -5.24362 | 17386 ft | 383 kts | 128° |
| 2026-05-04 20:07 | 54.24756 | -5.20791 | 18042 ft | 386 kts | 129° |
| 2026-05-04 20:07 | 54.23029 | -5.17250 | 18609 ft | 390 kts | 130° |
| 2026-05-04 20:07 | 54.21273 | -5.13706 | 19147 ft | 392 kts | 130° |
| 2026-05-04 20:08 | 54.19505 | -5.10132 | 19648 ft | 395 kts | 130° |
| 2026-05-04 20:08 | 54.17733 | -5.06519 | 20144 ft | 399 kts | 130° |
| 2026-05-04 20:08 | 54.15952 | -5.02860 | 20660 ft | 401 kts | 129° |
| 2026-05-04 20:08 | 54.14169 | -4.99176 | 21174 ft | 404 kts | 129° |
| 2026-05-04 20:09 | 54.12376 | -4.95465 | 21700 ft | 406 kts | 129° |
| 2026-05-04 20:09 | 54.10579 | -4.91745 | 22229 ft | 407 kts | 129° |
| 2026-05-04 20:09 | 54.08770 | -4.88015 | 22720 ft | 410 kts | 129° |
| 2026-05-04 20:09 | 54.06940 | -4.84255 | 23159 ft | 414 kts | 129° |
| 2026-05-04 20:10 | 54.05097 | -4.80470 | 23627 ft | 416 kts | 129° |
| 2026-05-04 20:10 | 54.03259 | -4.76644 | 24002 ft | 419 kts | 127° |
| 2026-05-04 20:10 | 54.01462 | -4.72710 | 24394 ft | 422 kts | 126° |
| 2026-05-04 20:10 | 53.99699 | -4.68715 | 24772 ft | 424 kts | 126° |
| 2026-05-04 20:11 | 53.97941 | -4.64680 | 25154 ft | 426 kts | 126° |
| 2026-05-04 20:11 | 53.96176 | -4.60628 | 25526 ft | 428 kts | 126° |
| 2026-05-04 20:11 | 53.94390 | -4.56567 | 25899 ft | 430 kts | 126° |
| 2026-05-04 20:11 | 53.92583 | -4.52498 | 26249 ft | 433 kts | 126° |
| 2026-05-04 20:12 | 53.90754 | -4.48425 | 26611 ft | 435 kts | 126° |
| 2026-05-04 20:12 | 53.88911 | -4.44357 | 27044 ft | 435 kts | 126° |
| 2026-05-04 20:12 | 53.87065 | -4.40288 | 27433 ft | 436 kts | 126° |
| 2026-05-04 20:12 | 53.85281 | -4.36198 | 27790 ft | 438 kts | 124° |
| 2026-05-04 20:13 | 53.83528 | -4.31964 | 28142 ft | 440 kts | 123° |
| 2026-05-04 20:13 | 53.81803 | -4.27670 | 28472 ft | 442 kts | 122° |
| 2026-05-04 20:13 | 53.80079 | -4.23335 | 28793 ft | 445 kts | 122° |
| 2026-05-04 20:13 | 53.78346 | -4.18996 | 29104 ft | 447 kts | 122° |
| 2026-05-04 20:14 | 53.76591 | -4.14648 | 29421 ft | 449 kts | 123° |
| 2026-05-04 20:14 | 53.74815 | -4.10304 | 29746 ft | 450 kts | 123° |
| 2026-05-04 20:14 | 53.73604 | -4.07367 | 29959 ft | 451 kts | 123° |
| 2026-05-04 20:14 | 53.71797 | -4.03015 | 30234 ft | 453 kts | 123° |
| 2026-05-04 20:15 | 53.69979 | -3.98656 | 30491 ft | 455 kts | 123° |
| 2026-05-04 20:15 | 53.68156 | -3.94283 | 30739 ft | 457 kts | 123° |
| 2026-05-04 20:15 | 53.66335 | -3.89908 | 31123 ft | 454 kts | 123° |
| 2026-05-04 20:15 | 53.64524 | -3.85564 | 31599 ft | 450 kts | 123° |
| 2026-05-04 20:16 | 53.62751 | -3.81315 | 31986 ft | 448 kts | 123° |
| 2026-05-04 20:16 | 53.60957 | -3.77020 | 32342 ft | 447 kts | 123° |
| 2026-05-04 20:16 | 53.59168 | -3.72740 | 32693 ft | 447 kts | 123° |
| 2026-05-04 20:16 | 53.57382 | -3.68475 | 33003 ft | 447 kts | 123° |
| 2026-05-04 20:17 | 53.55596 | -3.64213 | 33083 ft | 443 kts | 123° |
| 2026-05-04 20:17 | 53.52058 | -3.55801 | 33087 ft | 439 kts | 123° |
| 2026-05-04 20:18 | 53.48517 | -3.47442 | 33083 ft | 439 kts | 123° |
| 2026-05-04 20:18 | 53.45587 | -3.38556 | 33084 ft | 435 kts | 110° |
| 2026-05-04 20:19 | 53.43231 | -3.29199 | 33084 ft | 435 kts | 111° |
| 2026-05-04 20:19 | 53.40812 | -3.19899 | 33081 ft | 436 kts | 115° |
| 2026-05-04 20:20 | 53.37211 | -3.11713 | 33077 ft | 441 kts | 134° |
| 2026-05-04 20:20 | 53.32280 | -3.05560 | 33080 ft | 444 kts | 143° |
| 2026-05-04 20:21 | 53.27170 | -2.99759 | 33070 ft | 444 kts | 143° |
| 2026-05-04 20:21 | 53.19553 | -2.91084 | 33077 ft | 444 kts | 143° |
| 2026-05-04 20:22 | 53.14452 | -2.85300 | 33079 ft | 443 kts | 143° |
| 2026-05-04 20:22 | 53.09344 | -2.79560 | 33073 ft | 443 kts | 143° |
| 2026-05-04 20:23 | 53.04247 | -2.73835 | 33064 ft | 442 kts | 143° |
| 2026-05-04 20:23 | 52.99149 | -2.68122 | 33056 ft | 442 kts | 143° |
| 2026-05-04 20:24 | 52.94051 | -2.62432 | 33072 ft | 441 kts | 143° |
| 2026-05-04 20:24 | 52.88960 | -2.56760 | 33069 ft | 440 kts | 143° |
| 2026-05-04 20:25 | 52.83879 | -2.51111 | 33063 ft | 440 kts | 143° |
| 2026-05-04 20:25 | 52.78798 | -2.45475 | 33058 ft | 439 kts | 144° |
| 2026-05-04 20:26 | 52.73756 | -2.39914 | 33066 ft | 439 kts | 144° |
| 2026-05-04 20:26 | 52.71216 | -2.37120 | 32938 ft | 440 kts | 145° |
| 2026-05-04 20:26 | 52.68670 | -2.34323 | 32669 ft | 439 kts | 145° |
| 2026-05-04 20:27 | 52.66136 | -2.31543 | 32165 ft | 436 kts | 145° |
| 2026-05-04 20:27 | 52.63624 | -2.28785 | 31543 ft | 432 kts | 145° |
| 2026-05-04 20:27 | 52.61132 | -2.26046 | 30939 ft | 429 kts | 145° |
| 2026-05-04 20:27 | 52.58657 | -2.23329 | 30352 ft | 427 kts | 146° |
| 2026-05-04 20:28 | 52.56192 | -2.20634 | 29697 ft | 424 kts | 146° |
| 2026-05-04 20:28 | 52.53747 | -2.17964 | 29125 ft | 420 kts | 146° |
| 2026-05-04 20:28 | 52.51328 | -2.15326 | 28558 ft | 415 kts | 147° |
| 2026-05-04 20:28 | 52.48931 | -2.12713 | 27989 ft | 411 kts | 148° |
| 2026-05-04 20:29 | 52.46562 | -2.10136 | 27429 ft | 407 kts | 148° |
| 2026-05-04 20:29 | 52.44215 | -2.07590 | 26876 ft | 403 kts | 148° |
| 2026-05-04 20:29 | 52.41887 | -2.05070 | 26331 ft | 399 kts | 148° |
| 2026-05-04 20:29 | 52.39581 | -2.02575 | 25795 ft | 395 kts | 149° |
| 2026-05-04 20:30 | 52.37298 | -2.00106 | 25279 ft | 391 kts | 149° |
| 2026-05-04 20:30 | 52.35037 | -1.97659 | 24755 ft | 388 kts | 149° |
| 2026-05-04 20:30 | 52.32800 | -1.95239 | 24266 ft | 384 kts | 150° |
| 2026-05-04 20:30 | 52.30573 | -1.92839 | 23785 ft | 381 kts | 150° |
| 2026-05-04 20:31 | 52.28371 | -1.90471 | 23275 ft | 377 kts | 150° |
| 2026-05-04 20:31 | 52.26133 | -1.88317 | 22814 ft | 369 kts | 158° |
| 2026-05-04 20:31 | 52.23793 | -1.86664 | 22177 ft | 368 kts | 160° |
| 2026-05-04 20:31 | 52.21420 | -1.85018 | 21507 ft | 370 kts | 159° |
| 2026-05-04 20:32 | 52.19057 | -1.83371 | 20960 ft | 369 kts | 159° |
| 2026-05-04 20:32 | 52.16701 | -1.81720 | 20438 ft | 367 kts | 159° |
| 2026-05-04 20:32 | 52.14363 | -1.80077 | 19945 ft | 365 kts | 159° |
| 2026-05-04 20:32 | 52.12007 | -1.78433 | 19047 ft | 374 kts | 159° |
| 2026-05-04 20:33 | 52.09589 | -1.76760 | 18303 ft | 380 kts | 158° |
| 2026-05-04 20:33 | 52.07154 | -1.75080 | 17653 ft | 379 kts | 158° |
| 2026-05-04 20:33 | 52.04729 | -1.73410 | 17080 ft | 377 kts | 158° |
| 2026-05-04 20:33 | 52.02316 | -1.71743 | 16526 ft | 375 kts | 158° |
| 2026-05-04 20:34 | 51.99919 | -1.70085 | 15995 ft | 373 kts | 158° |
| 2026-05-04 20:34 | 51.97570 | -1.68461 | 15491 ft | 371 kts | 158° |
| 2026-05-04 20:34 | 51.95208 | -1.66828 | 14988 ft | 368 kts | 158° |
| 2026-05-04 20:34 | 51.92856 | -1.65204 | 14486 ft | 367 kts | 158° |
| 2026-05-04 20:35 | 51.90510 | -1.63591 | 13995 ft | 365 kts | 158° |
| 2026-05-04 20:35 | 51.88179 | -1.61984 | 13458 ft | 363 kts | 156° |
| 2026-05-04 20:35 | 51.85976 | -1.60011 | 12922 ft | 361 kts | 150° |
| 2026-05-04 20:35 | 51.83834 | -1.57942 | 12397 ft | 358 kts | 150° |
| 2026-05-04 20:36 | 51.81700 | -1.55889 | 11869 ft | 355 kts | 150° |
| 2026-05-04 20:36 | 51.79587 | -1.53857 | 11348 ft | 352 kts | 150° |
| 2026-05-04 20:36 | 51.77491 | -1.51843 | 10841 ft | 349 kts | 150° |
| 2026-05-04 20:36 | 51.75415 | -1.49850 | 10397 ft | 344 kts | 150° |
| 2026-05-04 20:37 | 51.73399 | -1.47918 | 10277 ft | 330 kts | 150° |
| 2026-05-04 20:37 | 51.71464 | -1.46060 | 10144 ft | 318 kts | 150° |
| 2026-05-04 20:37 | 51.69586 | -1.44311 | 10030 ft | 305 kts | 155° |
| 2026-05-04 20:37 | 51.67659 | -1.43054 | 9901 ft | 293 kts | 162° |
| 2026-05-04 20:38 | 51.65764 | -1.41942 | 9626 ft | 288 kts | 161° |
| 2026-05-04 20:38 | 51.63892 | -1.40841 | 9259 ft | 286 kts | 161° |
| 2026-05-04 20:38 | 51.62035 | -1.39747 | 9040 ft | 284 kts | 161° |
| 2026-05-04 20:38 | 51.60180 | -1.38653 | 8912 ft | 283 kts | 161° |
| 2026-05-04 20:39 | 51.58336 | -1.37569 | 8503 ft | 282 kts | 161° |
| 2026-05-04 20:39 | 51.56515 | -1.36501 | 8315 ft | 273 kts | 161° |
| 2026-05-04 20:39 | 51.54765 | -1.35476 | 8178 ft | 262 kts | 160° |
| 2026-05-04 20:39 | 51.53087 | -1.34490 | 8056 ft | 252 kts | 160° |
| 2026-05-04 20:40 | 51.51460 | -1.33533 | 7811 ft | 247 kts | 161° |
| 2026-05-04 20:40 | 51.49854 | -1.32592 | 7495 ft | 245 kts | 161° |
| 2026-05-04 20:40 | 51.48257 | -1.31658 | 7162 ft | 244 kts | 160° |
| 2026-05-04 20:40 | 51.46669 | -1.30730 | 6830 ft | 243 kts | 161° |
| 2026-05-04 20:41 | 51.45080 | -1.29805 | 6505 ft | 242 kts | 161° |
| 2026-05-04 20:41 | 51.43502 | -1.28886 | 6173 ft | 241 kts | 160° |
| 2026-05-04 20:41 | 51.41934 | -1.27972 | 6022 ft | 239 kts | 160° |
| 2026-05-04 20:41 | 51.40364 | -1.27057 | 6020 ft | 241 kts | 160° |
| 2026-05-04 20:42 | 51.38785 | -1.26138 | 6021 ft | 241 kts | 160° |
| 2026-05-04 20:42 | 51.37210 | -1.25220 | 6020 ft | 241 kts | 160° |
| 2026-05-04 20:42 | 51.35630 | -1.24297 | 6022 ft | 242 kts | 160° |
| 2026-05-04 20:42 | 51.34015 | -1.23555 | 6017 ft | 241 kts | 170° |
| 2026-05-04 20:43 | 51.32346 | -1.23352 | 6007 ft | 241 kts | 185° |
| 2026-05-04 20:43 | 51.30710 | -1.23978 | 6010 ft | 243 kts | 198° |
| 2026-05-04 20:43 | 51.29109 | -1.24875 | 6010 ft | 243 kts | 200° |
| 2026-05-04 20:43 | 51.27509 | -1.25753 | 6010 ft | 243 kts | 197° |
| 2026-05-04 20:44 | 51.25888 | -1.26508 | 6010 ft | 243 kts | 195° |
| 2026-05-04 20:44 | 51.24263 | -1.27089 | 6010 ft | 242 kts | 190° |
| 2026-05-04 20:44 | 51.22579 | -1.27558 | 6010 ft | 241 kts | 189° |
| 2026-05-04 20:44 | 51.20950 | -1.27980 | 5828 ft | 236 kts | 188° |
| 2026-05-04 20:45 | 51.19328 | -1.28391 | 5280 ft | 245 kts | 188° |
| 2026-05-04 20:45 | 51.17661 | -1.28812 | 5029 ft | 240 kts | 188° |
| 2026-05-04 20:45 | 51.16025 | -1.29227 | 4727 ft | 237 kts | 188° |
| 2026-05-04 20:45 | 51.14408 | -1.29642 | 4446 ft | 234 kts | 188° |
| 2026-05-04 20:46 | 51.12815 | -1.30055 | 4211 ft | 231 kts | 188° |
| 2026-05-04 20:46 | 51.11234 | -1.30462 | 3951 ft | 229 kts | 188° |
| 2026-05-04 20:46 | 51.09669 | -1.30864 | 3692 ft | 228 kts | 187° |
| 2026-05-04 20:46 | 51.08107 | -1.31264 | 3443 ft | 227 kts | 187° |
| 2026-05-04 20:47 | 51.06549 | -1.31663 | 3191 ft | 227 kts | 187° |
| 2026-05-04 20:47 | 51.04999 | -1.32061 | 3035 ft | 225 kts | 187° |
| 2026-05-04 20:47 | 51.03446 | -1.32462 | 3011 ft | 226 kts | 187° |
| 2026-05-04 20:47 | 51.01890 | -1.32864 | 3012 ft | 227 kts | 187° |
| 2026-05-04 20:48 | 51.00336 | -1.33266 | 3003 ft | 226 kts | 187° |
| 2026-05-04 20:48 | 50.98781 | -1.33669 | 3012 ft | 226 kts | 187° |
| 2026-05-04 20:48 | 50.97226 | -1.34072 | 3004 ft | 226 kts | 187° |
| 2026-05-04 20:48 | 50.95674 | -1.34469 | 3010 ft | 226 kts | 187° |
| 2026-05-04 20:49 | 50.94163 | -1.34866 | 3009 ft | 214 kts | 189° |
| 2026-05-04 20:49 | 50.92737 | -1.35366 | 3010 ft | 207 kts | 188° |
| 2026-05-04 20:49 | 50.91341 | -1.35744 | 3003 ft | 205 kts | 190° |
| 2026-05-04 20:49 | 50.89960 | -1.36302 | 2970 ft | 206 kts | 193° |
| 2026-05-04 20:50 | 50.88565 | -1.36872 | 2721 ft | 207 kts | 191° |
| 2026-05-04 20:50 | 50.87167 | -1.37386 | 2539 ft | 203 kts | 190° |
| 2026-05-04 20:50 | 50.85825 | -1.37830 | 2419 ft | 191 kts | 188° |
| 2026-05-04 20:50 | 50.84552 | -1.38242 | 2248 ft | 184 kts | 189° |
| 2026-05-04 20:51 | 50.83305 | -1.38659 | 2006 ft | 182 kts | 189° |
| 2026-05-04 20:51 | 50.82064 | -1.39074 | 1769 ft | 182 kts | 193° |
| 2026-05-04 20:51 | 50.81015 | -1.40140 | 1706 ft | 184 kts | 235° |
| 2026-05-04 20:51 | 50.80671 | -1.42039 | 1701 ft | 182 kts | 279° |
| 2026-05-04 20:52 | 50.81196 | -1.43771 | 1714 ft | 175 kts | 322° |
| 2026-05-04 20:52 | 50.82272 | -1.44486 | 1714 ft | 168 kts | 356° |
| 2026-05-04 20:52 | 50.83426 | -1.44391 | 1715 ft | 166 kts | 15° |
| 2026-05-04 20:52 | 50.84511 | -1.43915 | 1714 ft | 159 kts | 20° |
| 2026-05-04 20:53 | 50.85529 | -1.43290 | 1713 ft | 156 kts | 26° |
| 2026-05-04 20:53 | 50.86487 | -1.42517 | 1706 ft | 154 kts | 32° |
| 2026-05-04 20:53 | 50.87401 | -1.41618 | 1570 ft | 155 kts | 35° |
| 2026-05-04 20:53 | 50.88278 | -1.40721 | 1381 ft | 146 kts | 33° |
| 2026-05-04 20:54 | 50.89131 | -1.39907 | 1165 ft | 141 kts | 32° |
| 2026-05-04 20:54 | 50.89979 | -1.39135 | 990 ft | 140 kts | 30° |
| 2026-05-04 20:54 | 50.90832 | -1.38381 | 805 ft | 140 kts | 28° |
| 2026-05-04 20:54 | 50.91661 | -1.37649 | 663 ft | 136 kts | 27° |
| 2026-05-04 20:55 | 50.92516 | -1.37060 | 434 ft | 133 kts | 17° |
| 2026-05-04 20:55 | 50.93391 | -1.36590 | 258 ft | 133 kts | 18° |
| 2026-05-04 20:55 | 50.94252 | -1.36106 | 92 ft | 131 kts | 17° |
| 2026-05-04 20:55 | 50.95008 | -1.35690 | 40 ft | 82 kts | 19° |
| 2026-05-04 20:56 | 50.95356 | -1.35497 | 41 ft | 43 kts | 19° |
| 2026-05-04 20:56 | 50.95612 | -1.35355 | 45 ft | 35 kts | 20° |
| 2026-05-04 20:56 | 50.95743 | -1.35292 | 43 ft | 8 kts | 326° |
| 2026-05-04 20:56 | 50.95739 | -1.35303 | 41 ft | 1 kts | 223° |
| 2026-05-04 20:57 | 50.95693 | -1.35312 | 44 ft | 13 kts | 192° |
| 2026-05-04 20:57 | 50.95573 | -1.35377 | 44 ft | 22 kts | 200° |
| 2026-05-04 20:57 | 50.95415 | -1.35464 | 41 ft | 27 kts | 200° |
| 2026-05-04 20:57 | 50.95225 | -1.35567 | 40 ft | 30 kts | 199° |
| 2026-05-04 20:58 | 50.95043 | -1.35670 | 39 ft | 12 kts | 199° |
| 2026-05-04 20:58 | 50.95025 | -1.35749 | 40 ft | 7 kts | 284° |
| 2026-05-04 20:58 | 50.95048 | -1.35850 | 37 ft | 12 kts | 289° |
| 2026-05-04 20:58 | 50.95014 | -1.35944 | 37 ft | 11 kts | 199° |
| 2026-05-04 20:59 | 50.94940 | -1.35985 | 37 ft | 11 kts | 199° |
| 2026-05-04 20:59 | 50.94899 | -1.36076 | 39 ft | 11 kts | 283° |
| 2026-05-04 20:59 | 50.94926 | -1.36195 | 39 ft | 12 kts | 289° |
| 2026-05-04 20:59 | 50.94963 | -1.36258 | 39 ft | 5 kts | 11° |
| 2026-05-04 21:00 | 50.94989 | -1.36244 | 39 ft | 1 kts | 20° |
| 2026-05-04 21:00 | 50.94995 | -1.36241 | 39 ft | 1 kts | 20° |
| 2026-05-04 21:00 | 50.94999 | -1.36238 | 39 ft | 0 kts | 20° |